x

Cape San Martin - 55nm West Nw Of Morro Bay, Ca (46028) Wave Buoy

1:50pm - Fri 23rd Jun 2017 All times are PDT. -7 hours from GMT.

  • Sig Wave height 6.2ft
  • Swell Direction
  • Peak Period 12s
  • Average Period 9s
  • Wind
    4mph, 7mph gusts
  • Sea Temp 61°f
  • Air Temp 59°f
  • Sea Pressure 1013.7mb
  • Cape San Martin - 55nm West Nw Of Morro Bay, Ca
  • Cape San Martin - 55nm West Nw Of Morro Bay, Ca

More Historic Weather Station data

Upgrade to MSW Pro to gain access to the past 30 days of data for over 8000 Wavebouys and Weather Stations around the globe.

Join Pro

Comparision Forecast

View Surf forecast
   
Fri 06/23 1:50pm 6ft 12s 9s 4 7 mph 1013.7mb 61f 59f
12:50pm 6.5ft 16s 10s 2 4 mph 1013.6mb 61f 59f
11:50am 6ft 11s 9s 4 9 mph 1013.5mb 60f 58f
10:50am 5.5ft 15s 9s 7 9 mph 1013.4mb 60f 58f
9:50am 6ft 13s 9s 9 11 mph 1013.2mb 60f 57f
8:50am 6ft 14s 9s 9 13 mph 1013.2mb 60f 57f
7:50am 6ft 13s 9s 9 13 mph 1012.9mb 60f 57f
6:50am 6ft 11s 9s 11 13 mph 1012.5mb 60f 56f
5:50am 7ft 14s 9s 11 13 mph 1012.1mb 60f 57f
4:50am 7ft 11s 9s 11 16 mph 1011.6mb 60f 57f
3:50am 7ft 14s 9s 11 13 mph 1011.3mb 60f 57f
2:50am 7ft 13s 9s 11 16 mph 1011.3mb 60f 56f
1:50am 6.5ft 14s 9s 9 13 mph 1011.2mb 60f 57f
12:50am 7ft 11s 9s 9 16 mph 1011.2mb 60f 57f
Thu 06/22 11:50pm 7ft 13s 9s 11 13 mph 1011mb 60f 57f
10:50pm 7.5ft 15s 9s 11 16 mph 1010.8mb 60f 56f
9:50pm 6.5ft 11s 9s 9 13 mph 1010.3mb 60f 57f
8:50pm 7ft 13s 9s 9 13 mph 1009.8mb 60f 57f
7:50pm 7ft 11s 9s 11 16 mph 1009.5mb 60f 57f
6:50pm 7.5ft 11s 9s 13 18 mph 1009.2mb 60f 57f
5:50pm 7.5ft 9s  -  13 18 mph 1009.1mb 60f 57f
4:50pm 7ft 12s 9s 13 18 mph 1009.2mb 60f 57f
3:50pm 8ft 10s 9s 13 18 mph 1009.6mb 59f 57f
2:50pm 7.5ft 15s 9s 13 16 mph 1009.7mb 59f 57f
1:50pm 7.5ft 11s 9s 11 13 mph 1009.5mb 60f 57f
12:50pm 8ft 11s 8s 11 16 mph 1009.7mb 59f 56f
11:50am 8ft 14s 9s 11 13 mph 1009.2mb 59f 56f
10:50am 9ft 11s 9s 11 16 mph 1008.6mb 58f 55f
9:50am 8.5ft 12s 9s 9 13 mph 1008.4mb 59f 55f
8:50am 7.5ft 12s 9s 7 11 mph 1008.2mb 60f 55f
7:50am 7.5ft 11s 9s 7 9 mph 1007.4mb 60f 55f
6:50am 8ft 11s 9s 9 13 mph 1006.9mb 59f 55f
5:50am 8.5ft 12s 9s 4 9 mph 1006.7mb 58f 55f
4:50am 8ft 11s 8s 4 7 mph 1006.4mb 58f 55f
3:50am 10ft 12s 9s 2 7 mph 1006.4mb 58f 56f
2:50am 10ft 11s 9s  -  2 mph 1006.5mb 58f 56f
1:50am 10ft 11s 9s 2 4 mph 1006.7mb 58f 55f
12:50am 10ft 11s 9s 2 4 mph 1006.7mb 58f 55f
Wed 06/21 11:50pm 9.5ft 12s 9s 2 4 mph 1006.8mb 58f 55f
10:50pm 9ft 12s 9s 2 7 mph 1007.1mb 58f 56f
9:50pm 10ft 12s 9s 4 9 mph 1006.9mb 59f 56f
8:50pm 9.5ft 12s 9s 7 11 mph 1006.9mb 59f 57f
7:50pm 10ft 11s 9s 9 11 mph 1006.9mb 59f 57f
6:50pm 9.5ft 12s 9s 9 13 mph 1007mb 59f 58f
5:50pm 10.5ft 11s 9s 11 16 mph 1007mb 58f 58f
4:50pm 9.5ft 11s 9s 11 13 mph 1007.8mb 57f 58f
3:50pm 10ft 11s 8s 11 13 mph 1008.6mb 56f 58f
2:50pm 10ft 11s 8s 11 16 mph 1009.2mb 56f 58f
1:50pm 10ft 11s 8s 11 16 mph 1009.6mb 56f 58f
12:50pm 9ft 10s 7s 13 18 mph 1009.9mb 56f 57f
11:50am 9.5ft 11s 8s 13 18 mph 1010.2mb 55f 57f
10:50am 9ft 11s 7s 16 20 mph 1010.5mb 55f 56f
9:50am 10ft 11s 7s 18 22 mph 1010.5mb 55f 56f
8:50am 10ft 11s 7s 20 25 mph 1010.6mb 55f 56f
7:50am 11ft 10s 7s 20 25 mph 1010.6mb 55f 56f
6:50am 11ft 10s 7s 22 27 mph 1010mb 55f 56f
5:50am 9.5ft 10s 7s 27 31 mph 1009.9mb 55f 56f
4:50am 10ft 9s 7s 25 29 mph 1009.9mb 55f 56f
3:50am 9ft 7s 6s 25 31 mph 1010mb 55f 56f
2:50am 10ft 10s 6s 27 34 mph 1010.4mb 55f 57f
1:50am 10ft 8s 6s 27 34 mph 1010.6mb 56f 57f
12:50am 10ft 10s 6s 29 34 mph 1010.8mb 56f 57f
Tue 06/20 11:50pm 10ft 9s 6s 27 34 mph 1010.9mb 56f 58f
10:50pm 10ft 10s 6s 27 34 mph 1010.9mb 56f 58f
9:50pm 10ft 10s 6s 29 36 mph 1010.6mb 57f 58f
8:50pm 9ft 9s 6s 27 34 mph 1010.3mb 58f 58f
7:50pm 9ft 10s 6s 29 34 mph 1010.2mb 59f 58f
6:50pm 8.5ft 8s 6s 27 31 mph 1010.5mb 59f 58f
5:50pm 8.5ft 9s 6s 27 34 mph 1010.9mb 59f 59f
4:50pm 8ft 9s 7s 27 36 mph 1011.5mb 60f 58f
3:50pm 8ft 10s 7s 22 29 mph 1012.1mb 59f 59f
2:50pm 7ft 10s 6s 22 25 mph 1012.5mb 59f 59f
1:50pm 8.5ft 9s 7s 20 25 mph 1013.1mb 59f 58f
12:50pm 7.5ft 9s 7s 20 25 mph 1013.1mb 59f 58f
11:50am 8ft 9s 7s 20 22 mph 1013.1mb 59f 58f
10:50am 8.5ft 9s 7s 20 22 mph 1013.1mb 59f 57f
9:50am 8ft 10s  -  20 22 mph 1012.9mb 59f 57f
8:50am 6.5ft 8s 6s 18 20 mph 1012.8mb 59f 57f
7:50am 7.5ft 9s 7s 18 22 mph 1012.5mb 59f 58f
6:50am 7.5ft 9s 7s 18 20 mph 1012mb 59f 58f
5:50am 7ft 8s 6s 18 22 mph 1011.4mb 59f 58f
4:50am 7ft 9s 7s 18 22 mph 1011mb 59f 58f
3:50am 7ft 10s 6s 18 22 mph 1011mb 59f 58f
2:50am 7ft 8s 6s 18 20 mph 1011.1mb 58f 58f
1:50am 7.5ft 8s 6s 16 20 mph 1011.7mb 58f 58f
12:50am 7ft 9s 6s 18 22 mph 1011.8mb 58f 57f
Mon 06/19 11:50pm 7ft 9s 6s 18 20 mph 1011.9mb 58f 57f
10:50pm 7ft 9s 6s 18 22 mph 1011.6mb 58f 57f
9:50pm 7.5ft 9s 6s 18 22 mph 1011.2mb 58f 57f